createdAt,value
2023-05-09T00:00:22.454Z,18.50
2023-05-09T00:03:15.284Z,17.90
2023-05-09T00:05:49.923Z,17.70
2023-05-09T00:08:21.651Z,16.90
2023-05-09T00:10:53.873Z,18.00
2023-05-09T00:13:27.286Z,18.50
2023-05-09T00:15:59.964Z,17.10
2023-05-09T00:18:32.594Z,18.20
2023-05-09T00:21:05.541Z,17.60
2023-05-09T00:23:36.905Z,16.90
2023-05-09T00:26:10.878Z,18.10
2023-05-09T00:28:45.754Z,16.80
2023-05-09T00:31:19.404Z,17.90
2023-05-09T00:33:51.902Z,17.60
2023-05-09T00:36:24.064Z,18.30
2023-05-09T00:38:56.792Z,17.10
2023-05-09T00:41:33.303Z,17.20
2023-05-09T00:44:06.991Z,17.90
2023-05-09T00:46:39.404Z,18.30
2023-05-09T00:49:12.962Z,17.60
2023-05-09T00:51:45.215Z,17.60
2023-05-09T00:54:17.926Z,18.10
2023-05-09T00:56:53.181Z,17.50
2023-05-09T00:59:26.842Z,17.20
2023-05-09T01:02:01.637Z,16.80
2023-05-09T01:04:33.358Z,18.10
2023-05-09T01:07:12.495Z,16.70
2023-05-09T01:10:01.767Z,16.80
2023-05-09T01:12:42.757Z,15.70
2023-05-09T01:15:24.185Z,16.30
2023-05-09T01:18:02.083Z,16.00
2023-05-09T01:20:40.624Z,16.80
2023-05-09T01:23:35.865Z,15.50
2023-05-09T01:26:08.633Z,15.60
2023-05-09T01:29:05.654Z,15.70
2023-05-09T01:31:41.556Z,15.60
2023-05-09T01:34:16.378Z,15.70
2023-05-09T01:36:53.279Z,15.80
2023-05-09T01:39:26.048Z,15.40
2023-05-09T01:42:02.984Z,15.80
2023-05-09T01:44:41.109Z,16.20
2023-05-09T01:47:20.612Z,16.10
2023-05-09T01:49:52.812Z,15.10
2023-05-09T01:52:26.741Z,15.90
2023-05-09T01:54:59.197Z,15.80
2023-05-09T01:57:35.456Z,15.80
2023-05-09T02:00:10.384Z,15.60
2023-05-09T02:02:45.300Z,15.10
2023-05-09T02:05:18.402Z,15.60
2023-05-09T02:07:53.141Z,16.20
2023-05-09T02:10:34.127Z,16.10
2023-05-09T02:13:07.298Z,15.70
2023-05-09T02:15:40.763Z,16.20
2023-05-09T02:18:14.569Z,15.80
2023-05-09T02:20:47.501Z,15.80
2023-05-09T02:23:19.492Z,16.60
2023-05-09T02:25:56.913Z,16.30
2023-05-09T02:28:31.280Z,17.30
2023-05-09T02:31:10.124Z,16.80
2023-05-09T02:34:03.566Z,16.80
2023-05-09T02:36:36.006Z,16.50
2023-05-09T02:39:11.514Z,17.00
2023-05-09T02:41:50.824Z,17.30
2023-05-09T02:44:22.615Z,16.30
2023-05-09T02:46:55.680Z,17.00
2023-05-09T02:49:32.350Z,16.90
2023-05-09T02:52:08.024Z,17.30
2023-05-09T02:54:39.990Z,17.50
2023-05-09T02:57:12.542Z,17.10
2023-05-09T02:59:44.075Z,17.50
2023-05-09T03:02:18.445Z,17.20
2023-05-09T03:04:53.516Z,16.60
2023-05-09T03:07:29.344Z,17.20
2023-05-09T03:10:02.275Z,16.20
2023-05-09T03:12:36.541Z,17.30
2023-05-09T03:15:19.091Z,16.60
2023-05-09T03:17:52.457Z,16.30
2023-05-09T03:20:28.143Z,16.20
2023-05-09T03:23:00.976Z,16.40
2023-05-09T03:25:35.337Z,17.10
2023-05-09T03:28:08.015Z,17.10
2023-05-09T03:30:39.417Z,16.50
2023-05-09T03:33:18.518Z,16.60
2023-05-09T03:35:52.766Z,16.90
2023-05-09T03:38:25.905Z,16.70
2023-05-09T03:40:58.267Z,16.60
2023-05-09T03:43:35.973Z,16.80
2023-05-09T03:46:10.020Z,17.30
2023-05-09T03:48:48.624Z,16.90
2023-05-09T03:51:21.629Z,16.70
2023-05-09T03:53:54.231Z,16.20
2023-05-09T03:56:27.666Z,16.40
2023-05-09T03:59:00.451Z,16.40
2023-05-09T04:01:32.454Z,15.70
2023-05-09T04:04:05.963Z,16.50
2023-05-09T04:06:39.859Z,15.80
2023-05-09T04:09:10.873Z,15.90
2023-05-09T04:11:46.331Z,16.50
2023-05-09T04:14:19.357Z,15.90
2023-05-09T04:16:50.556Z,15.50
2023-05-09T04:19:24.090Z,15.40
2023-05-09T04:21:57.060Z,14.90
2023-05-09T04:24:28.353Z,14.10
2023-05-09T04:27:05.196Z,14.90
2023-05-09T04:29:40.141Z,15.10
2023-05-09T04:32:13.366Z,14.60
2023-05-09T04:34:45.959Z,14.60
2023-05-09T04:37:22.343Z,14.00
2023-05-09T04:39:55.456Z,13.40
2023-05-09T04:42:33.899Z,13.70
2023-05-09T04:45:07.424Z,13.90
2023-05-09T04:47:39.199Z,13.90
2023-05-09T04:50:17.025Z,13.50
2023-05-09T04:52:50.199Z,13.70
2023-05-09T04:55:23.613Z,13.80
2023-05-09T04:57:56.943Z,13.20
2023-05-09T05:00:30.669Z,13.10
2023-05-09T05:03:02.774Z,13.20
2023-05-09T05:05:38.415Z,13.70
2023-05-09T05:08:10.993Z,13.50
2023-05-09T05:10:47.626Z,13.40
2023-05-09T05:13:21.599Z,13.20
2023-05-09T05:15:59.286Z,13.60
2023-05-09T05:18:32.354Z,13.80
2023-05-09T05:21:04.523Z,13.90
2023-05-09T05:23:41.084Z,13.30
2023-05-09T05:26:19.007Z,13.50
2023-05-09T05:28:55.688Z,13.30
2023-05-09T05:31:29.445Z,12.80
2023-05-09T05:34:01.796Z,12.50
2023-05-09T05:36:38.391Z,12.30
2023-05-09T05:39:13.028Z,11.00
2023-05-09T05:41:46.644Z,11.50
2023-05-09T05:44:19.878Z,10.80
2023-05-09T05:46:55.528Z,10.50
2023-05-09T05:49:30.812Z,9.10
2023-05-09T05:52:07.154Z,9.20
2023-05-09T05:54:41.759Z,8.80
2023-05-09T05:57:17.300Z,8.70
2023-05-09T05:59:53.609Z,8.50
2023-05-09T06:02:26.818Z,8.10
2023-05-09T06:04:59.243Z,7.80
2023-05-09T06:07:31.200Z,7.90
2023-05-09T06:10:02.461Z,7.20
2023-05-09T06:12:40.216Z,6.60
2023-05-09T06:15:17.250Z,6.70
2023-05-09T06:17:52.905Z,6.50
2023-05-09T06:20:28.038Z,6.50
2023-05-09T06:23:02.917Z,5.90
2023-05-09T06:25:44.077Z,5.90
2023-05-09T06:28:16.444Z,5.60
2023-05-09T06:30:55.774Z,5.60
2023-05-09T06:33:30.180Z,5.60
2023-05-09T06:36:03.510Z,5.10
2023-05-09T06:38:39.240Z,7.50
2023-05-09T06:41:11.854Z,6.20
2023-05-09T06:43:50.149Z,6.80
2023-05-09T06:46:21.930Z,6.70
2023-05-09T06:48:54.645Z,7.40
2023-05-09T06:51:28.768Z,5.10
2023-05-09T06:54:01.251Z,5.00
2023-05-09T06:56:40.072Z,4.60
2023-05-09T06:59:18.055Z,4.80
2023-05-09T07:01:51.144Z,13.70
2023-05-09T07:04:27.944Z,9.80
2023-05-09T07:07:01.657Z,5.20
2023-05-09T07:09:34.128Z,4.40
2023-05-09T07:12:12.480Z,6.40
2023-05-09T07:14:46.617Z,4.70
2023-05-09T07:17:23.995Z,3.70
2023-05-09T07:19:57.489Z,3.50
2023-05-09T07:22:36.324Z,4.10
2023-05-09T07:25:21.513Z,3.20
2023-05-09T07:27:58.592Z,3.50
2023-05-09T07:30:35.541Z,3.10
2023-05-09T07:33:21.458Z,3.20
2023-05-09T07:35:55.765Z,2.80
2023-05-09T07:38:29.220Z,2.90
2023-05-09T07:41:06.874Z,3.10
2023-05-09T07:43:46.472Z,3.50
2023-05-09T07:46:20.324Z,4.30
2023-05-09T07:48:54.878Z,3.70
2023-05-09T07:51:31.779Z,2.80
2023-05-09T07:54:15.641Z,2.80
2023-05-09T07:56:51.105Z,2.90
2023-05-09T07:59:42.272Z,2.70
2023-05-09T08:02:25.022Z,2.50
2023-05-09T08:05:08.268Z,2.30
2023-05-09T08:07:40.278Z,2.80
2023-05-09T08:10:14.485Z,2.40
2023-05-09T08:12:53.331Z,2.50
2023-05-09T08:15:27.263Z,2.00
2023-05-09T08:18:00.423Z,2.00
2023-05-09T08:20:35.926Z,1.60
2023-05-09T08:23:09.222Z,1.90
2023-05-09T08:25:41.771Z,2.30
2023-05-09T08:28:14.076Z,2.80
2023-05-09T08:30:46.788Z,4.00
2023-05-09T08:33:21.483Z,2.70
2023-05-09T08:35:56.244Z,2.30
2023-05-09T08:38:29.988Z,2.40
2023-05-09T08:41:04.767Z,2.70
2023-05-09T08:43:45.228Z,2.30
2023-05-09T08:46:19.908Z,2.10
2023-05-09T08:48:50.944Z,2.00
2023-05-09T08:51:26.572Z,2.50
2023-05-09T08:53:59.403Z,2.70
2023-05-09T08:56:34.515Z,4.00
2023-05-09T08:59:05.972Z,2.40
2023-05-09T09:01:49.277Z,3.60
2023-05-09T09:04:20.664Z,2.80
2023-05-09T09:06:55.307Z,3.10
2023-05-09T09:09:28.093Z,3.20
2023-05-09T09:12:02.001Z,3.80
2023-05-09T09:14:39.852Z,3.10
2023-05-09T09:17:16.853Z,3.30
2023-05-09T09:19:54.022Z,3.10
2023-05-09T09:22:32.514Z,2.90
2023-05-09T09:25:05.130Z,2.50
2023-05-09T09:27:37.522Z,6.80
2023-05-09T09:30:16.098Z,4.40
2023-05-09T09:32:50.964Z,4.10
2023-05-09T09:35:25.042Z,4.40
2023-05-09T09:38:00.495Z,5.10
2023-05-09T09:40:33.907Z,3.80
2023-05-09T09:43:09.105Z,4.50
2023-05-09T09:45:46.956Z,3.40
2023-05-09T09:48:23.581Z,5.50
2023-05-09T09:50:57.636Z,4.60
2023-05-09T09:53:32.098Z,5.20
2023-05-09T09:56:04.963Z,3.60
2023-05-09T09:58:37.337Z,6.40
2023-05-09T10:01:15.458Z,8.00
2023-05-09T10:03:51.948Z,4.50
2023-05-09T10:06:27.865Z,4.80
2023-05-09T10:09:02.069Z,5.00
2023-05-09T10:11:36.885Z,4.10
2023-05-09T10:14:12.298Z,3.20
2023-05-09T10:16:51.009Z,2.60
2023-05-09T10:19:26.837Z,4.70
2023-05-09T10:22:04.032Z,5.60
2023-05-09T10:24:45.844Z,3.10
2023-05-09T10:27:21.630Z,2.40
2023-05-09T10:29:57.985Z,2.60
2023-05-09T10:32:32.229Z,3.00
2023-05-09T10:35:11.413Z,4.60
2023-05-09T10:37:45.800Z,3.10
2023-05-09T10:40:20.799Z,2.80
2023-05-09T10:42:53.217Z,2.50
2023-05-09T10:45:26.847Z,2.80
2023-05-09T10:48:04.060Z,2.80
2023-05-09T10:50:42.462Z,3.60
2023-05-09T10:53:17.936Z,4.80
2023-05-09T10:55:53.828Z,3.80
2023-05-09T10:58:32.089Z,2.70
2023-05-09T11:01:05.866Z,2.80
2023-05-09T11:03:59.045Z,2.90
2023-05-09T11:06:47.176Z,2.60
2023-05-09T11:09:30.636Z,3.00
2023-05-09T11:12:11.935Z,3.00
2023-05-09T11:14:46.362Z,2.80
2023-05-09T11:17:34.167Z,2.40
2023-05-09T11:20:12.933Z,2.20
2023-05-09T11:22:47.485Z,2.50
2023-05-09T11:25:26.226Z,3.20
2023-05-09T11:28:03.438Z,2.40
2023-05-09T11:30:43.275Z,2.70
2023-05-09T11:33:26.404Z,2.80
2023-05-09T11:36:25.691Z,2.40
2023-05-09T11:39:06.542Z,3.20
2023-05-09T11:41:44.635Z,2.90
2023-05-09T11:44:18.883Z,2.60
2023-05-09T11:46:52.513Z,2.40
2023-05-09T11:49:25.091Z,3.10
2023-05-09T11:52:02.121Z,2.70
2023-05-09T11:54:32.377Z,2.40
2023-05-09T11:57:05.827Z,4.00
2023-05-09T11:59:40.503Z,3.60
2023-05-09T12:02:13.273Z,3.20
2023-05-09T12:04:46.125Z,2.50
2023-05-09T12:07:22.130Z,2.40
2023-05-09T12:10:13.388Z,2.50
2023-05-09T12:12:48.654Z,2.50
2023-05-09T12:15:20.806Z,2.90
2023-05-09T12:18:05.248Z,2.50
2023-05-09T12:20:48.509Z,2.30
2023-05-09T12:23:19.661Z,2.80
2023-05-09T12:25:58.388Z,2.50
2023-05-09T12:28:31.945Z,2.40
2023-05-09T12:31:06.682Z,2.60
2023-05-09T12:33:42.686Z,2.30
2023-05-09T12:36:16.001Z,2.10
2023-05-09T12:38:55.564Z,2.40
2023-05-09T12:41:38.965Z,2.40
2023-05-09T12:44:25.695Z,3.10
2023-05-09T12:47:01.784Z,2.70
2023-05-09T12:49:38.596Z,2.60
2023-05-09T12:52:21.378Z,2.70
2023-05-09T12:54:56.242Z,2.50
2023-05-09T12:57:30.792Z,3.10
2023-05-09T13:00:06.430Z,2.70
2023-05-09T13:02:42.297Z,3.00
2023-05-09T13:05:20.734Z,2.70
2023-05-09T13:07:57.604Z,3.10
2023-05-09T13:10:31.572Z,3.30
2023-05-09T13:13:07.737Z,2.90
2023-05-09T13:15:42.248Z,2.90
2023-05-09T13:18:15.415Z,2.70
2023-05-09T13:20:48.499Z,3.20
2023-05-09T13:23:21.953Z,3.20
2023-05-09T13:25:56.257Z,2.50
2023-05-09T13:28:31.831Z,3.20
2023-05-09T13:31:05.731Z,2.60
2023-05-09T13:33:39.123Z,2.20
2023-05-09T13:36:11.633Z,8.50
2023-05-09T13:38:45.735Z,2.90
2023-05-09T13:41:23.038Z,2.90
2023-05-09T13:43:57.494Z,2.60
2023-05-09T13:46:30.998Z,2.60
2023-05-09T13:49:03.569Z,2.70
2023-05-09T13:51:35.314Z,2.60
2023-05-09T13:54:12.011Z,2.40
2023-05-09T13:56:44.686Z,2.40
2023-05-09T13:59:16.830Z,2.50
2023-05-09T14:01:50.187Z,2.90
2023-05-09T14:04:24.053Z,2.50
2023-05-09T14:06:55.101Z,2.60
2023-05-09T14:09:29.305Z,2.70
2023-05-09T14:12:02.420Z,2.60
2023-05-09T14:14:36.838Z,2.90
2023-05-09T14:17:09.366Z,2.80
2023-05-09T14:19:42.838Z,2.90
2023-05-09T14:22:16.185Z,2.40
2023-05-09T14:24:49.863Z,3.00
2023-05-09T14:27:21.199Z,2.70
2023-05-09T14:29:56.372Z,2.40
2023-05-09T14:32:29.716Z,2.20
2023-05-09T14:35:02.945Z,2.20
2023-05-09T14:37:36.266Z,2.20
2023-05-09T14:40:13.793Z,2.10
2023-05-09T14:42:45.771Z,2.10
2023-05-09T14:45:18.188Z,2.60
2023-05-09T14:47:50.356Z,2.30
2023-05-09T14:50:22.866Z,2.30
2023-05-09T14:52:54.719Z,2.50
2023-05-09T14:55:27.961Z,2.10
2023-05-09T14:58:03.023Z,2.20
2023-05-09T15:00:37.875Z,2.20
2023-05-09T15:03:11.120Z,2.50
2023-05-09T15:05:43.837Z,2.20
2023-05-09T15:08:15.816Z,2.30
2023-05-09T15:10:51.016Z,2.00
2023-05-09T15:13:23.312Z,2.20
2023-05-09T15:15:55.833Z,2.20
2023-05-09T15:18:28.657Z,2.60
2023-05-09T15:21:00.156Z,2.60
2023-05-09T15:23:49.549Z,2.30
2023-05-09T15:26:23.009Z,2.20
2023-05-09T15:28:55.458Z,2.20
2023-05-09T15:31:30.667Z,3.00
2023-05-09T15:34:03.290Z,3.10
2023-05-09T15:36:35.420Z,2.10
2023-05-09T15:39:07.002Z,2.50
2023-05-09T15:41:39.579Z,2.20
2023-05-09T15:44:11.582Z,2.10
2023-05-09T15:46:45.305Z,2.10
2023-05-09T15:49:17.885Z,2.60
2023-05-09T15:51:50.733Z,2.30
2023-05-09T15:54:25.037Z,2.20
2023-05-09T15:56:57.821Z,2.20
2023-05-09T15:59:31.838Z,2.10
2023-05-09T16:02:03.960Z,2.20
2023-05-09T16:04:37.178Z,2.10
2023-05-09T16:07:11.754Z,2.70
2023-05-09T16:09:42.954Z,2.20
2023-05-09T16:12:16.063Z,2.20
2023-05-09T16:14:48.235Z,4.70
2023-05-09T16:17:21.015Z,2.00
2023-05-09T16:19:55.531Z,2.00
2023-05-09T16:22:29.561Z,2.10
2023-05-09T16:25:03.175Z,2.10
2023-05-09T16:27:35.598Z,2.40
2023-05-09T16:30:13.527Z,2.00
2023-05-09T16:32:45.214Z,2.10
2023-05-09T16:35:17.820Z,2.50
2023-05-09T16:37:49.138Z,2.50
2023-05-09T16:40:21.816Z,2.20
2023-05-09T16:42:54.310Z,3.40
2023-05-09T16:45:26.239Z,2.00
2023-05-09T16:48:00.646Z,2.20
2023-05-09T16:50:35.322Z,2.80
2023-05-09T16:53:08.183Z,2.70
2023-05-09T16:55:56.609Z,2.70
2023-05-09T16:58:29.704Z,2.50
2023-05-09T17:01:04.740Z,2.30
2023-05-09T17:03:43.939Z,2.30
2023-05-09T17:06:16.656Z,2.10
2023-05-09T17:08:52.841Z,2.40
2023-05-09T17:11:26.291Z,2.40
2023-05-09T17:14:00.095Z,2.30
2023-05-09T17:16:34.243Z,2.30
2023-05-09T17:19:07.533Z,3.80
2023-05-09T17:21:42.874Z,3.30
2023-05-09T17:24:15.968Z,2.40
2023-05-09T17:26:47.972Z,2.40
2023-05-09T17:29:19.898Z,3.40
2023-05-09T17:31:53.748Z,5.40
2023-05-09T17:34:28.621Z,6.50
2023-05-09T17:37:02.363Z,6.50
2023-05-09T17:39:37.390Z,10.40
2023-05-09T17:42:11.366Z,3.40
2023-05-09T17:44:47.501Z,3.30
2023-05-09T17:47:19.547Z,5.80
2023-05-09T17:49:53.681Z,3.90
2023-05-09T17:52:25.542Z,8.40
2023-05-09T17:54:57.873Z,5.50
2023-05-09T17:57:29.699Z,5.00
2023-05-09T18:00:02.611Z,2.80
2023-05-09T18:02:49.970Z,3.00
2023-05-09T18:05:23.345Z,6.10
2023-05-09T18:08:00.381Z,17.60
2023-05-09T18:10:36.343Z,18.60
2023-05-09T18:13:10.923Z,17.40
2023-05-09T18:15:43.805Z,6.30
2023-05-09T18:18:16.783Z,7.10
2023-05-09T18:20:57.578Z,4.40
2023-05-09T18:23:31.434Z,7.60
2023-05-09T18:26:04.112Z,7.60
2023-05-09T18:28:39.897Z,8.00
2023-05-09T18:31:12.915Z,8.10
2023-05-09T18:33:46.754Z,22.00
2023-05-09T18:36:20.044Z,23.40
2023-05-09T18:38:51.613Z,10.90
2023-05-09T18:41:25.160Z,15.20
2023-05-09T18:43:59.469Z,8.80
2023-05-09T18:46:33.702Z,6.50
2023-05-09T18:49:06.452Z,9.70
2023-05-09T18:51:39.556Z,4.60
2023-05-09T18:54:15.361Z,4.50
2023-05-09T18:56:49.681Z,3.80
2023-05-09T18:59:22.316Z,4.00
2023-05-09T19:01:57.436Z,3.40
2023-05-09T19:04:30.747Z,7.00
2023-05-09T19:07:03.382Z,3.50
2023-05-09T19:09:36.559Z,3.50
2023-05-09T19:12:11.436Z,3.30
2023-05-09T19:14:43.589Z,3.30
2023-05-09T19:17:17.475Z,3.30
2023-05-09T19:19:50.011Z,3.40
2023-05-09T19:22:30.333Z,3.40
2023-05-09T19:25:03.485Z,3.70
2023-05-09T19:27:34.329Z,4.00
2023-05-09T19:30:09.221Z,3.90
2023-05-09T19:32:42.173Z,3.70
2023-05-09T19:35:14.208Z,3.60
2023-05-09T19:37:47.512Z,3.70
2023-05-09T19:40:28.068Z,4.10
2023-05-09T19:43:02.311Z,4.00
2023-05-09T19:45:34.955Z,3.60
2023-05-09T19:48:25.486Z,8.70
2023-05-09T19:51:00.172Z,9.30
2023-05-09T19:53:32.511Z,7.10
2023-05-09T19:56:07.453Z,7.10
2023-05-09T19:58:49.889Z,7.40
2023-05-09T20:01:28.934Z,6.40
2023-05-09T20:04:06.672Z,5.40
2023-05-09T20:06:50.985Z,4.40
2023-05-09T20:09:24.736Z,5.10
2023-05-09T20:12:01.355Z,4.00
2023-05-09T20:14:36.783Z,4.20
2023-05-09T20:17:12.398Z,4.20
2023-05-09T20:19:43.871Z,4.20
2023-05-09T20:22:15.321Z,4.40
2023-05-09T20:24:46.905Z,3.30
2023-05-09T20:27:18.248Z,3.90
2023-05-09T20:29:50.534Z,3.50
2023-05-09T20:32:31.639Z,5.00
2023-05-09T20:35:05.936Z,4.20
2023-05-09T20:37:39.492Z,4.20
2023-05-09T20:40:39.996Z,4.10
2023-05-09T20:43:11.371Z,3.90
2023-05-09T20:45:44.944Z,4.00
2023-05-09T20:48:16.861Z,3.90
2023-05-09T20:50:53.118Z,3.80
2023-05-09T20:53:34.596Z,4.10
2023-05-09T20:56:16.377Z,4.30
2023-05-09T20:58:53.685Z,4.20
2023-05-09T21:01:41.857Z,3.70
2023-05-09T21:04:12.705Z,3.90
2023-05-09T21:06:48.900Z,3.90
2023-05-09T21:09:22.184Z,3.60
2023-05-09T21:11:57.143Z,3.70
2023-05-09T21:14:36.147Z,3.90
2023-05-09T21:17:10.757Z,4.20
2023-05-09T21:20:01.125Z,4.30
2023-05-09T21:22:34.985Z,4.20
2023-05-09T21:25:11.053Z,4.40
2023-05-09T21:27:51.686Z,4.00
2023-05-09T21:30:25.237Z,4.30
2023-05-09T21:33:00.792Z,4.10
2023-05-09T21:35:38.142Z,4.00
2023-05-09T21:38:10.728Z,4.40
2023-05-09T21:40:46.129Z,4.00
2023-05-09T21:43:33.083Z,4.30
2023-05-09T21:46:13.730Z,4.10
2023-05-09T21:48:47.806Z,4.20
2023-05-09T21:51:30.998Z,4.00
2023-05-09T21:54:08.937Z,4.00
2023-05-09T21:56:57.665Z,4.00
2023-05-09T21:59:29.916Z,4.20
2023-05-09T22:02:06.393Z,3.90
2023-05-09T22:04:42.372Z,4.20
2023-05-09T22:07:15.811Z,4.10
2023-05-09T22:10:07.941Z,4.20
2023-05-09T22:12:41.388Z,4.40
2023-05-09T22:15:18.514Z,4.00
2023-05-09T22:17:53.858Z,4.10
2023-05-09T22:20:48.948Z,3.80
2023-05-09T22:23:25.092Z,3.80
2023-05-09T22:26:03.203Z,4.00
2023-05-09T22:28:44.736Z,4.30
2023-05-09T22:31:43.234Z,3.90
2023-05-09T22:34:18.497Z,4.10
2023-05-09T22:36:55.841Z,4.00
2023-05-09T22:39:31.162Z,4.40
2023-05-09T22:42:10.712Z,4.60
2023-05-09T22:44:52.180Z,4.00
2023-05-09T22:47:30.268Z,3.90
2023-05-09T22:50:11.311Z,4.30
2023-05-09T22:53:02.394Z,4.10
2023-05-09T22:55:45.456Z,4.20
2023-05-09T22:58:29.701Z,4.30
2023-05-09T23:01:09.190Z,4.00
2023-05-09T23:03:49.431Z,4.20
2023-05-09T23:06:26.245Z,4.30
2023-05-09T23:09:21.564Z,4.10
2023-05-09T23:12:01.776Z,4.10
2023-05-09T23:14:42.806Z,4.30
2023-05-09T23:17:22.289Z,3.90
2023-05-09T23:20:06.858Z,4.20
2023-05-09T23:22:44.312Z,4.00
2023-05-09T23:25:22.495Z,4.50
2023-05-09T23:28:06.296Z,3.60
2023-05-09T23:30:41.862Z,3.80
2023-05-09T23:33:18.956Z,3.40
2023-05-09T23:36:06.974Z,3.90
2023-05-09T23:38:49.856Z,3.60
2023-05-09T23:41:33.771Z,3.80
2023-05-09T23:44:14.762Z,4.00
2023-05-09T23:46:52.130Z,4.40
2023-05-09T23:49:33.104Z,4.50
2023-05-09T23:52:13.066Z,3.70
2023-05-09T23:54:55.870Z,3.90
2023-05-09T23:57:50.668Z,3.50
